Terminal Aerodrome Forecast
Issued by NWS

Home | Current Version | Previous Version | Text Only | Print | Product List | Glossary Off
Versions: 1 2 3 4 5 6 7 8 9 10 11 12 13 14 15 16 17 18 19 20 21 22 23

000
FTUS43 KGRB 212320
TAFRHI
TAF
KRHI 212320Z 2200/2224 VRB03KT P6SM SKC
     FM220800 VRB03KT P6SM BKN200
     FM221600 13005KT P6SM OVC080
     FM222200 12006KT P6SM OVC050=

USA.gov is the U.S. government's official web portal to all federal, state and local government web resources and services.